This is the latest recevied weather packets stored in our database for station/object M0OAB-1. If no packets are shown the sender has not sent any weather packets the latest 10 day(s).
| Time | Temp. | Humidity | Pressure | Rain* | Wind** | Luminosity | Snow |
|---|---|---|---|---|---|---|---|
| 1778226844 | 14.44° C | 70% | 1002.6 hPa | 0 mm | - | - | - |
| 1778225284 | 16.11° C | 67% | 1002.4 hPa | 0 mm | - | - | - |
| 1778223244 | 12.22° C | 90% | 1002.4 hPa | 0 mm | - | - | - |
| 1778221804 | 10.56° C | 90% | 1002.3 hPa | 0 mm | - | - | - |
| 1778221084 | 10° C | 91% | 1002.2 hPa | 0 mm | - | - | - |
| 1778220484 | 10° C | 91% | 1002.1 hPa | 0 mm | - | - | - |
| 1778219764 | 9.44° C | 91% | 1002.2 hPa | 0 mm | - | - | - |
| 1778219643 | 9.44° C | 91% | 1002.1 hPa | 0 mm | - | - | - |
| 1778218803 | 8.89° C | 91% | 1002.1 hPa | 0 mm | - | - | - |
| 1778218684 | 8.33° C | 90% | 1002 hPa | 0 mm | - | - | - |
| 1778218564 | 8.33° C | 90% | 1001.9 hPa | 0 mm | - | - | - |
| 1778216164 | 6.67° C | 92% | 1001.9 hPa | 0 mm | - | - | - |
| 1778215923 | 6.67° C | 91% | 1002 hPa | 0 mm | - | - | - |
| 1778215084 | 6.11° C | 91% | 1001.9 hPa | 0 mm | - | - | - |
| 1778214844 | 6.11° C | 91% | 1001.7 hPa | 0 mm | - | - | - |
| 1778214723 | 6.11° C | 91% | 1001.9 hPa | 0 mm | - | - | - |
| 1778214484 | 6.11° C | 91% | 1001.8 hPa | 0 mm | - | - | - |
| 1778214004 | 6.11° C | 90% | 1001.9 hPa | 0 mm | - | - | - |
| 1778213884 | 6.11° C | 90% | 1001.9 hPa | 0 mm | - | - | - |
| 1778213404 | 6.11° C | 90% | 1001.7 hPa | 0 mm | - | - | - |
| 1778211484 | 6.11° C | 89% | 1001.7 hPa | 0 mm | - | - | - |
| 1778210884 | 6.67° C | 89% | 1001.8 hPa | 0 mm | - | - | - |
| 1778210643 | 6.67° C | 88% | 1001.7 hPa | 0 mm | - | - | - |
| 1778210524 | 6.67° C | 88% | 1001.7 hPa | 0 mm | - | - | - |
| 1778209924 | 6.11° C | 87% | 1001.8 hPa | 0 mm | - | - | - |
* Rain latest hour (hover to see other rain measurements)
** Current wind speed in m/s (hover to see current wind gust speed)